Time;durP1;ratioP1;P1;durP2;ratioP2;P2;SDS_P1;SDS_P2;PMS_P1;PMS_P2;Temp;Humidity;BMP_temperature;BMP_pressure;BME280_temperature;BME280_humidity;BME280_pressure;Samples;Min_cycle;Max_cycle;Signal;HPM_P1;HPM_P2
2022/06/05 00:01:30;;;;;;;21.62;12.23;;;;;;;17.77;100.00;94514.01;1786477;79;20961;-56
2022/06/05 00:04:34;;;;;;;13.58;10.38;;;;;;;17.79;100.00;94519.09;1811641;79;20919;-57
2022/06/05 00:07:27;;;;;;;11.30;8.83;;;;;;;17.77;100.00;94528.54;1818308;79;20951;-56
2022/06/05 00:10:20;;;;;;;13.38;9.00;;;;;;;17.73;100.00;94534.98;1818229;79;20989;-56
2022/06/05 00:13:23;;;;;;;10.90;8.43;;;;;;;17.66;100.00;94527.11;1818185;79;21145;-57
2022/06/05 00:15:52;;;;;;;16.07;9.58;;;;;;;17.68;100.00;94530.15;1818210;79;20969;-56
2022/06/05 00:18:21;;;;;;;12.68;10.03;;;;;;;17.71;100.00;94530.55;1818116;79;20970;-56
2022/06/05 00:20:52;;;;;;;17.73;11.63;;;;;;;17.72;100.00;94527.27;1818101;79;21432;-55
2022/06/05 00:23:20;;;;;;;21.23;12.75;;;;;;;17.71;100.00;94529.15;1818293;79;21374;-56
2022/06/05 00:26:30;;;;;;;21.95;11.90;;;;;;;17.67;100.00;94536.98;1818462;78;21083;-55
2022/06/05 00:29:25;;;;;;;15.50;11.95;;;;;;;17.65;100.00;94526.98;1818196;79;21481;-56
2022/06/05 00:32:13;;;;;;;18.80;12.65;;;;;;;17.68;100.00;94528.76;1818764;79;20982;-55
2022/06/05 00:34:42;;;;;;;16.35;12.20;;;;;;;17.72;100.00;94532.06;1818278;79;20961;-56
2022/06/05 00:37:21;;;;;;;16.32;12.13;;;;;;;17.80;100.00;94529.70;1818434;79;20950;-55
2022/06/05 00:40:25;;;;;;;16.17;11.60;;;;;;;17.86;100.00;94529.73;1818142;79;21301;-56
2022/06/05 00:42:53;;;;;;;15.25;12.05;;;;;;;17.91;100.00;94519.25;1818577;79;20882;-56
2022/06/05 00:45:21;;;;;;;14.03;11.43;;;;;;;17.90;100.00;94523.30;1818057;79;21061;-56
2022/06/05 00:47:51;;;;;;;15.78;10.28;;;;;;;17.93;100.00;94522.30;1818108;79;20986;-55
2022/06/05 00:50:22;;;;;;;16.10;9.88;;;;;;;17.97;100.00;94527.76;1818205;79;20969;-56
2022/06/05 00:53:00;;;;;;;12.60;10.05;;;;;;;17.95;100.00;94523.94;1818249;79;21136;-56
2022/06/05 00:55:33;;;;;;;13.40;10.85;;;;;;;17.91;100.00;94533.95;1816864;79;20969;-56
2022/06/05 00:58:01;;;;;;;13.13;9.50;;;;;;;17.87;100.00;94525.08;1818314;78;21450;-55
2022/06/05 01:00:32;;;;;;;14.25;9.03;;;;;;;17.81;100.00;94535.40;1818123;79;21045;-56
2022/06/05 01:03:01;;;;;;;17.27;9.78;;;;;;;17.76;100.00;94540.93;1818171;79;20993;-56
2022/06/05 01:05:30;;;;;;;18.23;10.08;;;;;;;17.71;100.00;94537.50;1766042;79;21924;-56
2022/06/05 01:07:57;;;;;;;17.75;10.60;;;;;;;17.69;100.00;94540.02;1790928;79;21466;-56
2022/06/05 01:10:39;;;;;;;16.97;11.20;;;;;;;17.66;100.00;94536.20;1818133;79;20978;-56
2022/06/05 01:13:13;;;;;;;14.25;10.88;;;;;;;17.64;100.00;94537.98;1782565;79;21005;-56
2022/06/05 01:16:19;;;;;;;15.93;10.13;;;;;;;17.67;100.00;94545.33;1818175;79;20938;-56
2022/06/05 01:19:00;;;;;;;18.30;11.08;;;;;;;17.71;100.00;94546.63;1818436;79;21115;-57
2022/06/05 01:22:05;;;;;;;15.08;10.78;;;;;;;17.70;100.00;94553.45;1818294;79;20958;-56
2022/06/05 01:24:47;;;;;;;14.38;10.00;;;;;;;17.68;100.00;94553.16;1818269;79;21012;-55
2022/06/05 01:27:17;;;;;;;11.97;8.75;;;;;;;17.68;100.00;94554.55;1816849;79;21060;-55
2022/06/05 01:29:51;;;;;;;12.68;9.68;;;;;;;17.70;100.00;94555.45;1793209;79;21158;-56
2022/06/05 01:32:30;;;;;;;14.50;10.80;;;;;;;17.73;100.00;94552.45;1818089;79;21775;-56
2022/06/05 01:35:03;;;;;;;15.80;9.85;;;;;;;17.78;100.00;94546.76;1818095;79;20999;-58
2022/06/05 01:37:40;;;;;;;;;;;;;;;17.82;100.00;94549.45;1821241;79;20938;-55
2022/06/05 01:40:26;;;;;;;11.57;10.35;;;;;;;17.86;100.00;94547.83;1818108;79;20169;-56
2022/06/05 01:43:07;;;;;;;19.67;12.23;;;;;;;17.83;100.00;94550.22;1818280;78;20994;-58
2022/06/05 01:45:56;;;;;;;17.17;12.28;;;;;;;17.80;100.00;94549.83;1818235;79;20963;-57
2022/06/05 01:48:30;;;;;;;14.80;11.40;;;;;;;17.79;100.00;94555.27;1817649;79;21030;-56
2022/06/05 01:50:59;;;;;;;12.18;9.55;;;;;;;17.75;100.00;94550.55;1818234;79;21481;-56
2022/06/05 01:53:41;;;;;;;14.58;10.32;;;;;;;17.78;100.00;94548.92;1818500;79;20967;-56
2022/06/05 01:56:13;;;;;;;14.95;9.93;;;;;;;17.82;100.00;94550.84;1810339;79;20975;-56
2022/06/05 01:58:52;;;;;;;13.38;10.20;;;;;;;17.88;100.00;94541.13;1818257;79;22205;-57
2022/06/05 02:01:26;;;;;;;15.53;10.53;;;;;;;17.92;100.00;94539.64;1818129;79;20930;-56
2022/06/05 02:04:02;;;;;;;13.55;10.20;;;;;;;17.90;100.00;94538.61;1818003;78;21033;-56
2022/06/05 02:06:38;;;;;;;14.73;10.40;;;;;;;17.88;100.00;94538.34;1785997;79;20954;-55
2022/06/05 02:09:22;;;;;;;13.55;9.10;;;;;;;17.85;100.00;94544.91;1818126;79;21548;-56
2022/06/05 02:11:50;;;;;;;14.93;8.78;;;;;;;17.85;100.00;94543.52;1816886;78;21232;-56
2022/06/05 02:14:20;;;;;;;11.30;8.18;;;;;;;17.88;100.00;94545.30;1817969;79;21025;-56
2022/06/05 02:16:49;;;;;;;12.53;8.10;;;;;;;17.89;100.00;94545.44;1818053;79;20982;-56
2022/06/05 02:19:18;;;;;;;9.70;7.85;;;;;;;17.91;100.00;94552.04;1818418;79;21495;-57
2022/06/05 02:21:48;;;;;;;10.20;8.53;;;;;;;17.90;99.89;94549.73;1818084;79;20990;-56
2022/06/05 02:24:16;;;;;;;8.75;7.37;;;;;;;17.89;99.55;94544.05;1818076;79;21946;-56
2022/06/05 02:26:45;;;;;;;11.95;7.75;;;;;;;17.89;99.42;94552.39;1818042;79;21305;-56
2022/06/05 02:29:20;;;;;;;16.65;9.73;;;;;;;17.88;99.35;94556.44;1818627;79;20969;-56
2022/06/05 02:32:25;;;;;;;12.70;9.08;;;;;;;17.85;99.28;94554.66;1818040;79;21493;-57
2022/06/05 02:35:24;;;;;;;14.00;8.40;;;;;;;17.82;99.96;94554.27;1817832;79;20939;-56
2022/06/05 02:38:18;;;;;;;11.43;7.78;;;;;;;17.77;99.85;94546.63;1818185;79;22006;-56
2022/06/05 02:41:05;;;;;;;15.70;9.68;;;;;;;17.73;100.00;94551.67;1675797;85;21043;-55
2022/06/05 02:44:29;;;;;;;12.58;9.35;;;;;;;17.72;100.00;94541.19;1784007;79;21034;-56
2022/06/05 02:46:26;;;;;;;11.60;9.03;;;;;;;17.73;100.00;94544.72;1800796;79;20955;-56
2022/06/05 02:49:05;;;;;;;11.75;9.90;;;;;;;17.72;100.00;94551.55;1801080;79;21082;-56
2022/06/05 02:51:36;;;;;;;11.10;9.63;;;;;;;17.70;100.00;94555.45;1786411;79;21356;-55
2022/06/05 02:54:06;;;;;;;14.95;11.30;;;;;;;17.67;100.00;94562.02;1801051;79;21023;-56
2022/06/05 02:56:35;;;;;;;13.85;10.43;;;;;;;17.69;100.00;94554.70;1801066;79;21035;-55
2022/06/05 02:59:03;;;;;;;15.03;10.60;;;;;;;17.74;100.00;94548.41;1801032;79;20960;-55
2022/06/05 03:04:18;;;;;;;13.68;10.50;;;;;;;17.84;100.00;94555.92;1795270;79;21929;-56
2022/06/05 03:06:46;;;;;;;15.30;11.28;;;;;;;17.86;100.00;94555.53;1800976;79;21491;-56
2022/06/05 03:09:15;;;;;;;11.68;9.70;;;;;;;17.90;100.00;94559.48;1801187;79;20982;-56
2022/06/05 03:11:43;;;;;;;11.85;9.48;;;;;;;17.96;100.00;94560.26;1800949;79;21039;-56
2022/06/05 03:14:12;;;;;;;13.13;10.32;;;;;;;17.95;100.00;94560.91;1801364;79;21407;-55
2022/06/05 03:16:42;;;;;;;14.68;10.25;;;;;;;17.92;100.00;94556.34;1801077;79;21231;-55
2022/06/05 03:19:11;;;;;;;15.35;10.45;;;;;;;17.91;100.00;94556.83;1800890;79;20971;-56
2022/06/05 03:21:40;;;;;;;15.70;9.70;;;;;;;17.87;100.00;94559.09;1724373;79;21450;-56
2022/06/05 03:24:08;;;;;;;12.80;9.38;;;;;;;17.87;100.00;94559.09;1801007;79;20995;-56
2022/06/05 03:26:37;;;;;;;11.97;10.05;;;;;;;17.86;100.00;94563.14;1801290;79;20991;-56
2022/06/05 03:29:07;;;;;;;14.15;9.38;;;;;;;17.85;100.00;94565.14;1801110;79;21148;-56
2022/06/05 03:31:36;;;;;;;9.70;7.80;;;;;;;17.88;100.00;94572.52;1801339;79;21089;-56
2022/06/05 03:34:04;;;;;;;8.65;7.85;;;;;;;17.91;100.00;94577.70;1801117;79;20991;-56
2022/06/05 03:36:33;;;;;;;9.35;8.05;;;;;;;17.93;100.00;94577.34;1801124;79;20955;-56
2022/06/05 03:39:01;;;;;;;10.45;8.15;;;;;;;17.90;100.00;94574.79;1801203;79;21427;-56
2022/06/05 03:41:30;;;;;;;9.93;8.90;;;;;;;17.90;100.00;94583.14;1801122;79;21173;-56
2022/06/05 03:43:58;;;;;;;11.38;8.75;;;;;;;17.89;100.00;94588.58;1800971;79;21100;-55
2022/06/05 03:46:26;;;;;;;12.18;9.60;;;;;;;17.87;100.00;94588.31;1801006;79;20991;-56
2022/06/05 03:48:56;;;;;;;11.00;9.45;;;;;;;17.86;100.00;94592.36;1801165;79;21550;-57
2022/06/05 03:51:26;;;;;;;10.90;8.83;;;;;;;17.87;100.00;94586.92;1773129;79;21038;-56
2022/06/05 03:53:55;;;;;;;10.45;9.33;;;;;;;17.90;100.00;94589.48;1801105;79;21216;-56
2022/06/05 03:56:25;;;;;;;9.00;7.80;;;;;;;17.96;100.00;94583.92;1801139;79;20940;-55
2022/06/05 03:58:54;;;;;;;10.98;8.40;;;;;;;18.02;100.00;94583.34;1801170;79;20939;-55
2022/06/05 04:01:24;;;;;;;10.50;8.20;;;;;;;18.07;100.00;94588.94;1801730;79;20983;-55
2022/06/05 04:03:52;;;;;;;8.93;8.00;;;;;;;18.08;100.00;94591.08;1800956;79;20947;-56
2022/06/05 04:06:27;;;;;;;10.28;9.13;;;;;;;18.10;100.00;94584.38;1801141;79;21180;-56
2022/06/05 04:08:56;;;;;;;8.45;7.55;;;;;;;18.11;100.00;94582.50;1801091;79;20940;-55
2022/06/05 04:11:25;;;;;;;9.33;7.90;;;;;;;18.16;100.00;94581.01;1800905;79;20951;-55
2022/06/05 04:13:53;;;;;;;9.23;8.15;;;;;;;18.18;100.00;94584.80;1801150;79;20940;-57
2022/06/05 04:16:26;;;;;;;8.20;7.22;;;;;;;18.24;100.00;94581.42;1801101;79;21034;-56
2022/06/05 04:18:54;;;;;;;7.12;6.42;;;;;;;18.33;100.00;94572.25;1801166;79;22005;-56
2022/06/05 04:21:25;;;;;;;8.03;5.87;;;;;;;18.34;100.00;94572.38;1801440;79;21419;-56
2022/06/05 04:23:54;;;;;;;7.55;5.55;;;;;;;18.39;99.82;94575.80;1801377;79;20967;-56
2022/06/05 04:26:24;;;;;;;7.83;7.10;;;;;;;18.45;99.11;94573.79;1801168;79;21428;-57
2022/06/05 04:28:54;;;;;;;12.37;6.50;;;;;;;18.46;98.19;94575.31;1801488;79;21565;-56
2022/06/05 04:31:32;;;;;;;8.50;7.50;;;;;;;18.47;97.42;94574.05;1801266;79;21077;-56
2022/06/05 04:34:05;;;;;;;9.33;7.08;;;;;;;18.50;97.44;94573.69;1800873;79;21431;-56
2022/06/05 04:36:33;;;;;;;9.83;7.58;;;;;;;18.51;96.64;94571.02;1801237;79;20932;-56
2022/06/05 04:39:02;;;;;;;10.60;7.87;;;;;;;18.51;96.56;94569.63;1772486;79;20972;-56
2022/06/05 04:41:31;;;;;;;9.68;8.63;;;;;;;18.46;96.47;94562.77;1801103;79;20971;-56
2022/06/05 04:43:59;;;;;;;10.15;9.10;;;;;;;18.40;96.81;94562.00;1801494;79;21238;-55
2022/06/05 04:46:27;;;;;;;9.05;8.13;;;;;;;18.38;97.20;94566.55;1794296;79;21475;-55
2022/06/05 04:48:55;;;;;;;9.58;8.28;;;;;;;18.33;97.54;94560.33;1801426;79;21101;-56
2022/06/05 04:51:24;;;;;;;11.05;8.98;;;;;;;18.31;98.12;94574.75;1801115;79;21123;-56
2022/06/05 04:53:53;;;;;;;11.73;9.35;;;;;;;18.32;98.72;94569.30;1801237;79;21573;-56
2022/06/05 04:56:24;;;;;;;6.65;4.60;;;;;;;18.38;99.32;94569.33;1801165;79;21403;-56
2022/06/05 04:58:51;;;;;;;3.40;3.10;;;;;;;18.44;98.64;94572.27;1801270;79;20939;-56
2022/06/05 05:01:26;;;;;;;3.40;3.00;;;;;;;18.42;97.71;94574.80;1801051;79;21003;-56
2022/06/05 05:03:57;;;;;;;6.30;2.75;;;;;;;18.46;97.80;94578.09;1800818;79;20987;-56
2022/06/05 05:06:28;;;;;;;6.20;2.77;;;;;;;18.51;96.63;94579.38;1801043;79;21545;-57
2022/06/05 05:08:57;;;;;;;5.97;2.85;;;;;;;18.47;95.90;94593.55;1801137;79;21128;-56
2022/06/05 05:11:26;;;;;;;4.08;2.60;;;;;;;18.44;95.76;94588.98;1798236;79;21074;-56
2022/06/05 05:13:55;;;;;;;5.50;2.67;;;;;;;18.41;95.80;94584.42;1801236;79;21043;-57
2022/06/05 05:16:24;;;;;;;6.12;2.70;;;;;;;18.47;96.29;94585.84;1801194;79;20992;-58
2022/06/05 05:18:53;;;;;;;4.58;2.75;;;;;;;18.55;96.03;94591.81;1801043;79;21534;-56
2022/06/05 05:21:22;;;;;;;4.62;2.55;;;;;;;18.61;95.44;94589.80;1801037;79;21179;-57
2022/06/05 05:23:50;;;;;;;3.85;2.90;;;;;;;18.66;95.29;94589.05;1794270;79;21423;-57
2022/06/05 05:26:26;;;;;;;3.35;3.05;;;;;;;18.72;94.86;94594.64;1801313;79;20983;-56
2022/06/05 05:28:55;;;;;;;4.28;3.30;;;;;;;18.82;94.47;94600.13;1801492;79;20995;-55
2022/06/05 05:31:26;;;;;;;3.70;3.40;;;;;;;18.88;94.12;94610.64;1771063;79;20987;-57
2022/06/05 05:33:54;;;;;;;3.42;2.33;;;;;;;18.91;93.84;94607.62;1801313;79;21084;-56
2022/06/05 05:36:24;;;;;;;3.17;2.85;;;;;;;18.97;93.07;94608.38;1801039;79;21442;-56
2022/06/05 05:44:29;;;;;;;3.25;2.85;;;;;;;18.79;91.20;94626.97;1776966;79;21047;-55
2022/06/05 05:46:57;;;;;;;2.80;2.55;;;;;;;18.73;91.74;94617.84;1800916;79;21261;-56
2022/06/05 05:49:26;;;;;;;2.20;1.70;;;;;;;18.72;91.23;94621.89;1798266;79;21042;-56
2022/06/05 05:51:54;;;;;;;1.72;1.62;;;;;;;18.72;89.77;94623.28;1801140;79;20947;-56
2022/06/05 05:54:22;;;;;;;1.45;1.30;;;;;;;18.71;88.84;94623.16;1798570;79;20999;-56
2022/06/05 05:56:51;;;;;;;2.80;1.40;;;;;;;18.69;88.06;94624.30;1801013;79;20951;-55
2022/06/05 05:59:21;;;;;;;1.20;1.10;;;;;;;18.68;86.96;94624.78;1801081;79;20999;-55
2022/06/05 06:01:49;;;;;;;1.00;1.00;;;;;;;18.62;86.12;94617.05;1800928;79;20970;-56
2022/06/05 06:04:18;;;;;;;1.10;1.00;;;;;;;18.59;86.38;94616.63;1801057;79;20995;-57
2022/06/05 06:06:49;;;;;;;0.90;0.90;;;;;;;18.62;86.13;94621.98;1789829;80;21003;-56
2022/06/05 06:09:18;;;;;;;1.00;1.00;;;;;;;18.66;86.14;94628.06;1789896;79;21004;-56
2022/06/05 06:11:46;;;;;;;1.40;1.05;;;;;;;18.75;86.61;94627.08;1789908;80;21850;-57
2022/06/05 06:14:14;;;;;;;1.37;1.20;;;;;;;18.83;86.08;94626.08;1790237;80;20952;-56
2022/06/05 06:16:43;;;;;;;0.88;0.88;;;;;;;18.88;85.63;94621.80;1789913;79;20991;-56
2022/06/05 06:19:11;;;;;;;0.90;0.90;;;;;;;18.88;84.08;94628.14;1789732;80;20987;-55
2022/06/05 06:21:41;;;;;;;3.67;1.50;;;;;;;18.88;83.47;94630.94;1789780;80;20967;-56
2022/06/05 06:24:10;;;;;;;0.90;0.90;;;;;;;18.87;82.05;94623.80;1789772;80;21274;-56
2022/06/05 06:26:40;;;;;;;0.80;0.80;;;;;;;18.92;82.48;94616.11;1790175;80;21519;-56
2022/06/05 06:29:09;;;;;;;0.80;0.80;;;;;;;19.03;82.10;94625.88;1791350;80;20996;-56
2022/06/05 06:31:38;;;;;;;0.82;0.82;;;;;;;19.07;81.74;94629.20;1781106;80;21514;-57
2022/06/05 06:34:06;;;;;;;1.47;0.90;;;;;;;19.10;81.65;94629.58;1789947;80;21007;-56
2022/06/05 06:36:35;;;;;;;1.40;1.00;;;;;;;19.10;81.29;94633.76;1780817;80;21211;-59
2022/06/05 06:39:03;;;;;;;3.02;1.10;;;;;;;19.07;80.73;94631.21;1789900;80;20936;-55
2022/06/05 06:41:34;;;;;;;1.50;1.40;;;;;;;19.09;80.38;94636.42;1789760;80;20967;-56
2022/06/05 06:44:03;;;;;;;1.87;1.05;;;;;;;19.14;80.57;94628.69;1789777;80;20968;-56
2022/06/05 06:46:31;;;;;;;1.00;1.00;;;;;;;19.20;80.92;94628.08;1789752;80;21072;-57
2022/06/05 06:48:59;;;;;;;1.00;1.00;;;;;;;19.24;80.78;94635.59;1765851;80;21830;-56
2022/06/05 06:51:28;;;;;;;3.75;1.35;;;;;;;19.28;81.22;94631.14;1789655;80;20980;-57
2022/06/05 06:53:57;;;;;;;1.07;1.07;;;;;;;19.30;81.26;94633.56;1764376;80;21038;-56
2022/06/05 06:56:28;;;;;;;2.12;1.90;;;;;;;19.37;80.93;94633.70;1789787;80;21480;-57
2022/06/05 06:58:58;;;;;;;1.30;1.20;;;;;;;19.47;80.58;94634.33;1790127;80;20948;-56
2022/06/05 07:01:26;;;;;;;1.10;0.93;;;;;;;19.58;79.57;94639.89;1765998;80;21138;-57
2022/06/05 07:03:55;;;;;;;1.32;0.93;;;;;;;19.59;77.01;94641.41;1789781;80;20952;-56
2022/06/05 07:06:24;;;;;;;0.98;0.90;;;;;;;19.54;76.36;94649.81;1789605;80;20956;-57
2022/06/05 07:08:52;;;;;;;2.27;0.88;;;;;;;19.50;76.27;94652.84;1790288;80;20947;-58
2022/06/05 07:11:20;;;;;;;1.87;1.07;;;;;;;19.48;74.87;94653.99;1791436;80;21008;-57
2022/06/05 07:13:50;;;;;;;2.70;1.75;;;;;;;19.46;74.73;94649.55;1789771;79;20920;-57
2022/06/05 07:16:19;;;;;;;3.05;2.10;;;;;;;19.55;75.54;94654.12;1789678;80;21008;-58
2022/06/05 07:18:48;;;;;;;0.90;0.90;;;;;;;19.63;75.30;94650.94;1790206;80;20999;-56
2022/06/05 07:21:20;;;;;;;1.70;1.17;;;;;;;19.81;75.72;94657.41;1789961;79;21487;-56
2022/06/05 07:23:49;;;;;;;1.00;1.00;;;;;;;19.98;75.49;94661.72;1790082;80;21468;-57
2022/06/05 07:26:19;;;;;;;9.13;5.75;;;;;;;20.11;74.35;94650.79;1789792;80;21243;-57
2022/06/05 07:28:48;;;;;;;7.05;2.15;;;;;;;20.23;74.34;94652.30;1766070;80;21023;-57
2022/06/05 07:31:17;;;;;;;1.52;1.12;;;;;;;20.42;73.87;94659.63;1791346;80;20987;-57
2022/06/05 07:33:46;;;;;;;1.22;1.12;;;;;;;20.47;72.12;94656.05;1790004;80;21040;-57
2022/06/05 07:36:16;;;;;;;1.12;1.12;;;;;;;20.51;72.27;94654.36;1789712;80;20960;-57
2022/06/05 07:38:45;;;;;;;1.75;1.47;;;;;;;20.58;71.05;94658.78;1790095;80;21421;-58
2022/06/05 07:41:20;;;;;;;2.83;1.15;;;;;;;20.71;70.53;94661.05;1789718;80;20984;-58
2022/06/05 07:43:48;;;;;;;1.52;1.40;;;;;;;20.81;68.91;94662.25;1789999;80;21479;-59
2022/06/05 07:46:16;;;;;;;1.32;1.22;;;;;;;20.80;67.77;94653.75;1765852;80;21051;-57
2022/06/05 07:48:45;;;;;;;1.72;1.55;;;;;;;20.76;67.14;94657.45;1791605;80;20948;-58
2022/06/05 07:56:50;;;;;;;2.25;1.50;;;;;;;20.64;67.30;94658.77;1789674;80;20992;-57
2022/06/05 07:59:20;;;;;;;1.50;1.40;;;;;;;20.65;67.18;94657.48;1789777;79;21519;-58
2022/06/05 08:01:48;;;;;;;2.02;1.37;;;;;;;20.70;66.89;94655.33;1765620;80;21055;-57
2022/06/05 08:04:18;;;;;;;4.05;1.60;;;;;;;20.73;66.29;94658.48;1789770;80;20999;-58
2022/06/05 08:06:48;;;;;;;2.42;1.50;;;;;;;20.78;66.55;94657.70;1798503;79;20995;-57
2022/06/05 08:09:18;;;;;;;2.45;1.22;;;;;;;20.95;67.65;94661.20;1800975;79;21051;-57
2022/06/05 08:11:46;;;;;;;1.77;1.67;;;;;;;21.16;66.83;94656.77;1772424;79;21554;-57
2022/06/05 08:14:14;;;;;;;4.25;1.60;;;;;;;21.33;65.87;94663.02;1801116;79;21423;-56
2022/06/05 08:16:44;;;;;;;1.47;1.37;;;;;;;21.45;64.26;94656.83;1798320;79;20947;-56
2022/06/05 08:19:15;;;;;;;1.75;1.47;;;;;;;21.55;64.01;94660.06;1772692;79;20982;-57
2022/06/05 08:21:44;;;;;;;1.70;1.60;;;;;;;21.49;65.57;94658.70;1800991;79;20954;-57
2022/06/05 08:24:13;;;;;;;2.60;1.62;;;;;;;21.41;66.54;94663.97;1801019;79;21062;-55
2022/06/05 08:26:41;;;;;;;2.40;1.82;;;;;;;21.25;65.88;94667.66;1801258;79;20943;-57
2022/06/05 08:29:09;;;;;;;1.50;1.35;;;;;;;21.20;65.89;94671.23;1801014;79;21230;-57
2022/06/05 08:31:38;;;;;;;1.20;1.20;;;;;;;21.11;62.53;94664.56;1801203;79;21007;-56
2022/06/05 08:34:06;;;;;;;2.22;1.42;;;;;;;20.96;63.15;94673.91;1794279;79;21101;-57
2022/06/05 08:36:34;;;;;;;1.50;1.40;;;;;;;20.88;63.67;94663.91;1800971;79;20959;-57
2022/06/05 08:42:14;;;;;;;1.45;1.35;;;;;;;20.94;62.98;94659.69;1801101;79;21164;-56
2022/06/05 08:44:58;;;;;;;1.62;1.52;;;;;;;21.05;63.30;94659.61;1801103;79;20947;-57
2022/06/05 08:47:34;;;;;;;2.95;1.92;;;;;;;21.20;61.80;94663.61;1801088;79;21546;-56
2022/06/05 08:50:30;;;;;;;1.37;1.27;;;;;;;21.38;63.08;94677.61;1773404;79;21482;-56
2022/06/05 08:53:04;;;;;;;3.98;3.67;;;;;;;21.51;62.65;94674.34;1801410;79;21482;-57
2022/06/05 08:55:41;;;;;;;3.35;1.67;;;;;;;21.65;62.27;94679.51;1801114;79;21760;-58
2022/06/05 08:58:30;;;;;;;1.98;1.60;;;;;;;21.93;62.19;94688.44;1771961;79;20999;-56
2022/06/05 09:01:02;;;;;;;3.87;1.62;;;;;;;22.12;60.55;94690.81;1800974;79;21038;-57
2022/06/05 09:03:50;;;;;;;1.95;1.52;;;;;;;22.11;59.54;94693.49;1772105;79;21038;-56
2022/06/05 09:06:26;;;;;;;1.55;1.45;;;;;;;22.00;59.71;94683.69;1799348;79;21003;-57
2022/06/05 09:08:56;;;;;;;1.87;1.65;;;;;;;21.82;59.60;94687.89;1789826;80;21109;-56
2022/06/05 09:11:51;;;;;;;1.72;1.62;;;;;;;21.67;60.08;94692.34;1789700;80;20984;-56
2022/06/05 09:14:47;;;;;;;3.20;1.72;;;;;;;21.56;60.50;94699.38;1789818;80;21148;-57
2022/06/05 09:17:17;;;;;;;3.72;1.47;;;;;;;21.45;60.75;94698.08;1789861;80;20953;-57
2022/06/05 09:19:46;;;;;;;2.80;1.20;;;;;;;21.37;62.20;94697.09;1790137;80;21530;-57
2022/06/05 09:22:33;;;;;;;2.15;1.10;;;;;;;21.38;62.31;94701.41;1789799;80;21278;-60
2022/06/05 09:25:26;;;;;;;1.42;1.32;;;;;;;21.41;62.32;94707.36;1789996;80;20948;-56
2022/06/05 09:28:02;;;;;;;1.95;1.10;;;;;;;21.35;63.12;94709.45;1789973;80;21420;-57
2022/06/05 09:30:42;;;;;;;1.00;1.00;;;;;;;21.31;64.08;94713.16;1789748;80;20948;-57
2022/06/05 09:33:21;;;;;;;1.37;0.90;;;;;;;21.30;64.15;94709.59;1789303;80;20948;-57
2022/06/05 09:36:01;;;;;;;0.80;0.80;;;;;;;21.13;63.87;94703.97;1790082;80;21171;-56
2022/06/05 09:38:49;;;;;;;1.10;1.10;;;;;;;20.88;64.73;94710.68;1739666;80;21514;-56
2022/06/05 09:41:40;;;;;;;2.20;1.30;;;;;;;20.74;65.87;94724.33;1789974;79;21047;-56
2022/06/05 09:44:22;;;;;;;7.35;5.28;;;;;;;20.72;66.64;94719.23;1789643;80;21000;-57
2022/06/05 09:47:01;;;;;;;30.97;22.87;;;;;;;20.66;66.11;94723.31;1789835;80;20983;-57
2022/06/05 09:49:48;;;;;;;11.50;10.23;;;;;;;20.60;67.38;94730.97;1789869;80;21468;-57
2022/06/05 09:52:24;;;;;;;2.85;2.65;;;;;;;20.62;67.02;94732.61;1789961;80;21569;-56
2022/06/05 09:55:18;;;;;;;2.10;2.00;;;;;;;20.59;67.45;94732.24;1789822;80;20948;-56
2022/06/05 10:00:49;;;;;;;1.50;1.40;;;;;;;20.34;69.11;94740.30;1789756;80;20947;-56
2022/06/05 10:03:28;;;;;;;1.67;1.57;;;;;;;20.13;68.91;94730.66;1790050;79;21214;-56
2022/06/05 10:06:17;;;;;;;1.67;1.57;;;;;;;19.95;70.47;94730.39;1788257;80;21066;-55
2022/06/05 10:08:52;;;;;;;1.32;1.22;;;;;;;19.86;70.62;94734.20;1786841;79;21069;-56
2022/06/05 10:11:52;;;;;;;1.62;1.37;;;;;;;19.75;70.87;94741.16;1801092;79;20959;-58
2022/06/05 10:15:02;;;;;;;2.60;1.70;;;;;;;19.63;70.89;94741.04;1798258;79;20924;-56
2022/06/05 10:17:53;;;;;;;1.80;1.62;;;;;;;19.54;70.57;94744.70;1798199;79;21231;-58
2022/06/05 10:20:38;;;;;;;3.02;1.98;;;;;;;19.52;70.06;94748.64;1801125;79;20952;-57
2022/06/05 10:23:42;;;;;;;2.80;2.30;;;;;;;19.56;70.41;94749.89;1801119;79;21064;-56
2022/06/05 10:26:30;;;;;;;3.65;3.35;;;;;;;19.77;70.58;94744.85;1801161;79;20995;-56
2022/06/05 10:29:12;;;;;;;4.58;3.90;;;;;;;19.88;68.98;94747.02;1800931;79;21010;-56
2022/06/05 10:31:44;;;;;;;6.50;5.70;;;;;;;19.96;68.96;94738.89;1801228;79;21262;-55
2022/06/05 10:34:46;;;;;;;8.25;7.45;;;;;;;20.04;67.94;94740.70;1801070;79;20964;-56
2022/06/05 10:37:36;;;;;;;10.58;9.45;;;;;;;20.09;68.06;94740.58;1801303;79;20944;-56
2022/06/05 10:40:18;;;;;;;12.23;8.70;;;;;;;20.15;68.57;94739.28;1801022;79;20951;-57
2022/06/05 10:42:57;;;;;;;10.80;9.70;;;;;;;20.26;67.53;94733.70;1800493;79;21078;-56
2022/06/05 10:45:51;;;;;;;10.48;9.38;;;;;;;20.39;67.41;94741.67;1800869;79;21869;-57
2022/06/05 10:48:28;;;;;;;11.45;8.50;;;;;;;20.45;67.44;94732.66;1798711;79;20991;-56
2022/06/05 10:51:20;;;;;;;8.53;7.67;;;;;;;20.52;65.53;94740.52;1801007;79;21026;-56
2022/06/05 10:54:21;;;;;;;9.40;8.50;;;;;;;20.55;66.07;94733.15;1801047;79;20972;-56
2022/06/05 10:57:02;;;;;;;17.62;15.20;;;;;;;20.57;65.65;94732.00;1771677;79;39245;-55
2022/06/05 10:59:47;;;;;;;15.35;13.85;;;;;;;20.45;65.18;94743.06;1800904;79;21062;-56
2022/06/05 11:02:47;;;;;;;11.83;10.10;;;;;;;20.28;66.13;94747.91;1800896;79;21376;-56
2022/06/05 11:06:03;;;;;;;6.60;5.90;;;;;;;20.05;66.89;94753.39;1800780;79;21010;-58
2022/06/05 11:09:11;;;;;;;5.28;4.78;;;;;;;19.77;67.79;94751.83;1776173;79;21404;-57
2022/06/05 11:15:53;;;;;;;5.72;5.22;;;;;;;19.51;69.24;94739.48;1768255;81;21167;-56
2022/06/05 11:18:55;;;;;;;2.80;2.60;;;;;;;19.41;69.16;94748.60;1768236;81;20953;-57
2022/06/05 11:21:24;;;;;;;1.75;1.65;;;;;;;19.38;68.32;94741.98;1768789;81;20981;-56
2022/06/05 11:23:53;;;;;;;1.27;1.05;;;;;;;19.42;68.90;94726.41;1768263;81;21094;-58
2022/06/05 11:26:55;;;;;;;3.25;2.70;;;;;;;19.43;69.04;94725.91;1768668;80;20945;-56
2022/06/05 11:29:33;;;;;;;6.47;5.12;;;;;;;19.47;68.62;94721.46;1747241;81;20937;-56
2022/06/05 11:32:30;;;;;;;4.95;4.25;;;;;;;19.50;68.29;94730.21;1768440;81;20933;-57
2022/06/05 11:35:12;;;;;;;7.72;6.17;;;;;;;19.50;68.30;94730.98;1768211;81;21005;-56
2022/06/05 11:37:56;;;;;;;3.42;2.95;;;;;;;19.48;68.65;94734.92;1756134;81;21052;-57
2022/06/05 11:40:52;;;;;;;5.20;3.90;;;;;;;19.47;67.47;94732.63;1768173;80;21020;-56
2022/06/05 11:43:33;;;;;;;7.97;5.85;;;;;;;19.55;67.65;94732.27;1768154;81;21160;-57
2022/06/05 11:46:26;;;;;;;3.98;2.42;;;;;;;19.75;66.78;94735.58;1768067;81;20988;-58
2022/06/05 11:49:24;;;;;;;2.87;1.70;;;;;;;19.98;66.93;94739.92;1768565;81;20960;-56
2022/06/05 11:52:20;;;;;;;6.35;2.60;;;;;;;20.13;66.87;94735.62;1768489;81;21409;-56
2022/06/05 11:55:09;;;;;;;1.85;1.62;;;;;;;20.27;66.46;94740.80;1768721;81;21020;-57
2022/06/05 11:57:51;;;;;;;3.30;2.65;;;;;;;20.34;65.98;94724.94;1768369;80;21260;-57
2022/06/05 12:00:50;;;;;;;2.58;1.62;;;;;;;20.31;65.50;94721.12;1763283;81;21043;-56
2022/06/05 12:03:25;;;;;;;2.67;1.85;;;;;;;20.36;64.76;94725.19;1768638;81;21484;-57
2022/06/05 12:06:17;;;;;;;5.58;3.52;;;;;;;20.37;63.25;94721.11;1768364;81;20952;-57
2022/06/05 12:08:57;;;;;;;7.87;5.30;;;;;;;20.26;63.19;94729.50;1745731;80;20952;-56
2022/06/05 12:11:51;;;;;;;4.78;2.20;;;;;;;20.08;63.24;94730.03;1768586;80;21118;-56
2022/06/05 12:14:36;;;;;;;4.95;4.00;;;;;;;19.94;64.14;94725.42;1742341;81;21470;-55
2022/06/05 12:17:32;;;;;;;1.67;1.57;;;;;;;19.76;64.89;94731.52;1766672;81;20953;-56
2022/06/05 12:20:21;;;;;;;1.27;1.20;;;;;;;19.67;64.80;94731.00;1768374;81;20964;-57
2022/06/05 12:22:59;;;;;;;2.08;1.35;;;;;;;19.59;65.29;94735.56;1768690;81;21008;-57
2022/06/05 12:25:31;;;;;;;2.35;2.00;;;;;;;19.52;65.86;94742.41;1768380;81;21871;-57
2022/06/05 12:28:20;;;;;;;2.20;2.10;;;;;;;19.47;65.78;94736.19;1741295;80;21036;-56
2022/06/05 12:30:58;;;;;;;3.80;3.50;;;;;;;19.42;65.89;94728.58;1768628;80;20985;-56
2022/06/05 12:33:37;;;;;;;3.83;3.52;;;;;;;19.37;66.68;94730.70;1768585;81;21067;-56